Time;durP1;ratioP1;P1;durP2;ratioP2;P2;SDS_P1;SDS_P2;PMS_P1;PMS_P2;Temp;Humidity;BMP_temperature;BMP_pressure;BME280_temperature;BME280_humidity;BME280_pressure;Samples;Min_cycle;Max_cycle;Signal;HPM_P1;HPM_P2
2021/05/19 00:00:12;;;;;;;3.92;3.50;;;;;;;17.84;38.90;101453.38;4137976;28;20030;-68
2021/05/19 00:02:12;;;;;;;4.80;3.08;;;;;;;18.08;38.54;101450.34;4137849;28;20033;-67
2021/05/19 00:04:14;;;;;;;5.20;3.47;;;;;;;17.87;39.13;101447.31;4135967;28;20037;-67
2021/05/19 00:06:14;;;;;;;4.18;2.83;;;;;;;18.23;38.31;101436.69;4138626;28;20077;-67
2021/05/19 00:08:14;;;;;;;2.85;2.40;;;;;;;19.03;36.69;101449.91;4134830;28;20027;-67
2021/05/19 00:10:15;;;;;;;2.67;2.47;;;;;;;18.79;37.22;101446.69;4133174;28;20101;-65
2021/05/19 00:12:15;;;;;;;5.50;3.55;;;;;;;18.23;37.99;101446.91;4137803;28;20396;-68
2021/05/19 00:14:18;;;;;;;4.38;3.60;;;;;;;17.79;38.83;101437.53;4141255;28;20033;-67
2021/05/19 00:16:18;;;;;;;4.93;3.53;;;;;;;17.87;38.59;101441.78;4137307;28;20041;-68
2021/05/19 00:18:19;;;;;;;5.13;4.70;;;;;;;17.74;38.82;101431.94;4141362;28;20048;-68
2021/05/19 00:20:21;;;;;;;4.20;3.80;;;;;;;17.87;38.19;101436.25;4144545;28;20050;-73
2021/05/19 00:22:21;;;;;;;6.80;4.63;;;;;;;17.95;38.42;101434.94;4143463;28;20042;-71
2021/05/19 00:24:21;;;;;;;5.53;3.22;;;;;;;18.40;37.33;101439.38;4139161;28;20057;-71
2021/05/19 00:26:24;;;;;;;7.38;4.32;;;;;;;17.99;38.43;101439.72;4137492;28;20034;-70
2021/05/19 00:28:25;;;;;;;5.35;4.15;;;;;;;17.92;38.23;101436.31;4142078;28;20122;-69
2021/05/19 00:30:25;;;;;;;3.50;3.20;;;;;;;17.99;38.36;101434.19;4153789;28;20041;-69
2021/05/19 00:32:26;;;;;;;7.30;3.88;;;;;;;18.01;38.08;101442.22;4142816;28;20046;-69
2021/05/19 00:34:26;;;;;;;4.65;4.25;;;;;;;17.87;38.42;101427.94;4146491;28;20034;-69
2021/05/19 00:36:27;;;;;;;4.38;3.53;;;;;;;17.75;38.72;101428.09;4151123;28;20061;-69
2021/05/19 00:38:27;;;;;;;5.10;3.70;;;;;;;18.11;38.24;101433.22;4141386;28;20038;-67
2021/05/19 00:40:29;;;;;;;3.45;3.15;;;;;;;18.58;37.35;101437.34;4153381;28;20045;-69
2021/05/19 00:42:30;;;;;;;4.07;2.70;;;;;;;18.82;36.86;101432.28;4138747;28;20442;-69
2021/05/19 00:44:30;;;;;;;2.67;2.08;;;;;;;19.00;36.81;101436.56;4143586;28;20084;-70
2021/05/19 00:46:32;;;;;;;3.92;2.20;;;;;;;19.13;36.65;101436.16;4141236;28;20030;-67
2021/05/19 00:48:34;;;;;;;6.80;3.60;;;;;;;17.68;38.96;101424.66;4140500;28;20038;-67
2021/05/19 00:50:34;;;;;;;3.53;2.50;;;;;;;18.39;37.76;101426.63;4146918;28;20072;-66
2021/05/19 00:52:34;;;;;;;6.10;3.75;;;;;;;17.88;38.34;101421.31;4151932;28;20461;-67
2021/05/19 00:54:35;;;;;;;4.68;4.13;;;;;;;17.86;38.61;101428.19;4139640;28;20401;-68
2021/05/19 00:56:36;;;;;;;4.38;3.55;;;;;;;17.88;38.43;101420.47;4138215;28;20037;-66
2021/05/19 00:58:36;;;;;;;4.70;4.00;;;;;;;17.59;39.20;101423.44;4141219;28;20030;-66
2021/05/19 01:00:37;;;;;;;7.50;5.72;;;;;;;17.30;39.62;101431.84;4141043;28;20624;-66
2021/05/19 01:02:37;;;;;;;6.47;4.28;;;;;;;17.53;39.17;101425.28;4142376;28;20030;-66
2021/05/19 01:04:37;;;;;;;9.68;4.68;;;;;;;17.19;39.69;101424.47;4138345;28;20030;-65
2021/05/19 01:06:48;;;;;;;6.85;5.05;;;;;;;17.34;39.59;101421.94;4146531;28;20034;-66
2021/05/19 01:09:49;;;;;;;;;;;;;;;17.03;40.10;101421.47;4142179;28;20449;-66
2021/05/19 01:11:19;;;;;;;9.00;5.05;;;;;;;16.83;40.54;101415.63;4135015;28;20388;-67
2021/05/19 01:13:20;;;;;;;6.97;5.50;;;;;;;16.87;40.58;101416.81;4145182;28;20061;-70
2021/05/19 01:15:21;;;;;;;8.48;5.07;;;;;;;16.99;40.38;101420.34;4141212;28;20049;-70
2021/05/19 01:17:21;;;;;;;8.43;5.40;;;;;;;16.63;41.25;101419.69;4141033;28;20060;-71
2021/05/19 01:19:25;;;;;;;12.07;5.35;;;;;;;16.54;41.46;101419.28;4151101;28;20476;-71
2021/05/19 01:21:26;;;;;;;7.70;5.00;;;;;;;17.42;39.51;101413.19;4142829;28;20563;-64
2021/05/19 01:23:30;;;;;;;8.40;4.93;;;;;;;16.86;40.68;101418.72;4141349;28;20050;-69
2021/05/19 01:25:30;;;;;;;8.63;4.60;;;;;;;16.66;41.19;101404.56;4138601;28;20443;-67
2021/05/19 01:27:31;;;;;;;8.13;4.88;;;;;;;16.79;41.04;101414.44;4141317;28;20026;-67
2021/05/19 01:29:32;;;;;;;7.18;3.72;;;;;;;17.01;40.54;101415.38;4142570;28;20084;-67
2021/05/19 01:31:33;;;;;;;5.72;3.78;;;;;;;17.29;39.82;101419.13;4142123;28;20404;-67
2021/05/19 01:33:34;;;;;;;4.85;3.72;;;;;;;16.82;40.97;101419.47;4134311;28;20033;-67
2021/05/19 01:35:34;;;;;;;6.20;4.13;;;;;;;17.08;40.40;101418.78;4144798;28;20397;-69
2021/05/19 01:37:37;;;;;;;6.47;3.83;;;;;;;17.17;40.49;101421.13;4144090;28;20043;-68
2021/05/19 01:39:38;;;;;;;7.13;4.10;;;;;;;17.24;39.85;101421.78;4151090;28;20430;-67
2021/05/19 01:41:39;;;;;;;6.13;3.10;;;;;;;17.43;39.57;101420.41;4141450;28;20125;-65
2021/05/19 01:43:40;;;;;;;3.78;2.67;;;;;;;17.61;39.00;101416.56;4143720;28;20034;-72
2021/05/19 01:45:41;;;;;;;6.88;2.95;;;;;;;17.33;39.89;101423.03;4143519;28;20026;-65
2021/05/19 01:47:49;;;;;;;4.50;2.83;;;;;;;17.30;39.98;101415.22;4141507;28;20044;-65
2021/05/19 01:49:49;;;;;;;6.50;3.33;;;;;;;17.27;39.88;101410.22;4141262;28;20053;-64
2021/05/19 01:51:50;;;;;;;4.05;3.10;;;;;;;17.56;39.50;101413.69;4140781;28;20500;-64
2021/05/19 01:53:51;;;;;;;6.03;2.80;;;;;;;17.54;39.49;101420.59;4143098;28;20034;-64
2021/05/19 01:55:53;;;;;;;5.80;2.90;;;;;;;17.61;39.21;101426.75;4144750;28;20022;-64
2021/05/19 01:57:54;;;;;;;5.13;2.60;;;;;;;17.63;39.17;101408.00;4145854;28;20044;-67
2021/05/19 01:59:55;;;;;;;4.90;2.50;;;;;;;17.41;39.49;101416.22;4146756;28;20761;-64
2021/05/19 02:01:55;;;;;;;5.72;2.80;;;;;;;16.88;40.72;101412.94;4138317;28;20499;-66
2021/05/19 02:04:11;;;;;;;4.93;2.40;;;;;;;17.84;38.69;101411.00;4143704;28;20037;-68
2021/05/19 02:06:11;;;;;;;3.72;2.58;;;;;;;18.08;38.31;101409.63;4135772;28;20030;-65
2021/05/19 02:08:12;;;;;;;3.35;2.13;;;;;;;17.99;38.48;101416.72;4146450;28;20400;-65
2021/05/19 02:10:13;;;;;;;3.45;1.80;;;;;;;18.09;38.24;101416.84;4144109;28;20033;-66
2021/05/19 02:12:14;;;;;;;2.78;1.77;;;;;;;18.08;38.26;101412.41;4148117;28;20030;-68
2021/05/19 02:14:16;;;;;;;3.45;2.10;;;;;;;17.87;38.71;101410.50;4144129;28;20486;-68
2021/05/19 02:16:16;;;;;;;2.30;1.63;;;;;;;18.14;37.97;101416.91;4140450;28;20033;-69
2021/05/19 02:18:16;;;;;;;2.45;1.45;;;;;;;18.35;37.72;101400.50;4150347;28;20127;-69
2021/05/19 02:20:19;;;;;;;4.70;1.58;;;;;;;18.44;37.39;101407.25;4143812;28;20021;-69
2021/05/19 02:22:21;;;;;;;5.13;1.58;;;;;;;18.55;37.38;101404.59;4147523;28;20650;-68
2021/05/19 02:24:22;;;;;;;4.20;1.40;;;;;;;18.33;38.05;101411.03;4145181;28;20033;-68
2021/05/19 02:26:22;;;;;;;1.75;1.38;;;;;;;18.33;38.10;101398.00;4147248;28;20030;-69
2021/05/19 02:28:23;;;;;;;3.00;1.40;;;;;;;18.45;37.93;101400.63;4144974;28;20038;-67
2021/05/19 02:30:25;;;;;;;1.48;1.27;;;;;;;18.50;37.79;101388.75;4144191;28;20048;-66
2021/05/19 02:32:27;;;;;;;3.03;1.45;;;;;;;18.50;37.81;101400.66;4137338;28;20039;-67
2021/05/19 02:34:27;;;;;;;1.33;1.02;;;;;;;18.49;37.75;101385.16;4139994;28;20038;-67
2021/05/19 02:36:27;;;;;;;1.25;1.00;;;;;;;18.58;37.64;101402.13;4145554;28;20683;-67
2021/05/19 02:38:28;;;;;;;1.83;1.50;;;;;;;18.61;37.47;101403.53;4150887;28;20029;-66
2021/05/19 02:40:29;;;;;;;2.20;1.35;;;;;;;18.57;37.61;101400.47;4143183;28;20038;-69
2021/05/19 02:42:30;;;;;;;3.08;1.45;;;;;;;18.51;37.88;101402.34;4147966;28;20038;-67
2021/05/19 02:44:30;;;;;;;2.75;1.40;;;;;;;18.52;37.94;101392.94;4144021;28;20038;-66
2021/05/19 02:46:31;;;;;;;2.47;1.50;;;;;;;18.64;37.72;101397.47;4143418;28;20026;-67
2021/05/19 02:48:31;;;;;;;2.25;1.50;;;;;;;18.63;37.73;101398.56;4147110;28;20041;-66
2021/05/19 02:50:32;;;;;;;2.08;1.48;;;;;;;18.53;38.11;101399.31;4141882;28;20030;-67
2021/05/19 02:52:33;;;;;;;1.75;1.35;;;;;;;18.58;37.69;101401.28;4146863;28;20387;-66
2021/05/19 02:54:34;;;;;;;1.20;0.90;;;;;;;18.62;37.84;101392.19;4143936;28;20061;-67
2021/05/19 02:56:35;;;;;;;2.70;1.42;;;;;;;18.58;37.92;101396.56;4145291;28;20689;-67
2021/05/19 02:58:35;;;;;;;2.95;1.60;;;;;;;18.58;37.80;101396.56;4142370;28;20430;-67
2021/05/19 03:00:36;;;;;;;1.75;1.40;;;;;;;18.52;37.82;101400.41;4132700;28;20057;-66
2021/05/19 03:02:36;;;;;;;2.60;1.33;;;;;;;18.55;37.76;101390.72;4143967;28;20034;-66
2021/05/19 03:04:37;;;;;;;4.00;1.67;;;;;;;18.37;38.20;101395.56;4144974;28;20445;-66
2021/05/19 03:06:37;;;;;;;2.10;1.45;;;;;;;18.26;38.29;101394.59;4143815;28;20407;-66
2021/05/19 03:08:38;;;;;;;2.78;1.20;;;;;;;18.50;37.88;101395.13;4141925;28;20030;-66
2021/05/19 03:10:38;;;;;;;2.83;1.42;;;;;;;18.43;38.07;101401.97;4143389;28;20037;-66
2021/05/19 03:12:39;;;;;;;2.08;1.10;;;;;;;18.44;38.06;101392.56;4143388;28;20501;-66
2021/05/19 03:14:40;;;;;;;1.85;1.60;;;;;;;18.45;37.85;101397.84;4148388;28;20388;-67
2021/05/19 03:16:40;;;;;;;1.85;1.10;;;;;;;18.56;37.72;101400.72;4150503;28;20042;-66
2021/05/19 03:18:41;;;;;;;1.20;1.02;;;;;;;18.37;38.10;101397.47;4143329;28;20040;-67
2021/05/19 03:20:42;;;;;;;2.03;1.10;;;;;;;18.44;37.87;101401.72;4135636;28;20063;-72
2021/05/19 03:22:42;;;;;;;1.77;1.25;;;;;;;18.46;38.00;101399.53;4147513;28;20081;-71
2021/05/19 03:24:43;;;;;;;1.70;1.20;;;;;;;18.42;37.99;101403.09;4144724;28;20042;-66
2021/05/19 03:26:43;;;;;;;2.97;1.27;;;;;;;18.26;38.28;101402.91;4145944;28;20034;-66
2021/05/19 03:28:45;;;;;;;2.60;1.40;;;;;;;18.25;38.34;101403.16;4143000;28;20033;-66
2021/05/19 03:30:46;;;;;;;2.10;1.20;;;;;;;18.13;38.42;101395.81;4143397;28;20037;-66
2021/05/19 03:32:46;;;;;;;3.00;1.25;;;;;;;18.50;37.92;101397.88;4144283;28;20041;-69
2021/05/19 03:34:46;;;;;;;2.00;1.30;;;;;;;18.44;37.74;101411.97;4141383;28;21269;-67
2021/05/19 03:36:47;;;;;;;2.13;1.08;;;;;;;18.41;37.82;101404.19;4144247;28;20057;-70
2021/05/19 03:38:48;;;;;;;2.38;1.23;;;;;;;18.59;37.38;101405.75;4144841;28;20042;-67
2021/05/19 03:40:48;;;;;;;1.48;1.23;;;;;;;18.42;37.50;101392.00;4141376;28;20038;-66
2021/05/19 03:42:49;;;;;;;1.88;1.40;;;;;;;18.47;37.78;101406.72;4138421;28;20046;-64
2021/05/19 03:44:49;;;;;;;1.33;1.00;;;;;;;18.34;37.92;101396.09;4143332;28;20044;-64
2021/05/19 03:46:50;;;;;;;2.28;1.27;;;;;;;18.50;37.70;101395.13;4145076;28;20048;-68
2021/05/19 03:48:53;;;;;;;3.30;1.20;;;;;;;18.53;37.73;101396.53;4143124;28;20490;-68
2021/05/19 03:50:54;;;;;;;2.95;1.27;;;;;;;18.59;37.56;101402.97;4141554;28;20034;-68
2021/05/19 03:52:58;;;;;;;2.08;1.52;;;;;;;18.47;37.63;101406.72;4144934;28;20092;-68
2021/05/19 03:55:00;;;;;;;2.08;1.00;;;;;;;18.51;37.77;101402.34;4143798;28;20197;-66
2021/05/19 03:57:05;;;;;;;2.53;1.30;;;;;;;18.20;38.31;101403.94;4142832;28;20514;-66
2021/05/19 03:59:05;;;;;;;1.88;1.40;;;;;;;18.26;38.29;101399.28;4144578;28;20030;-65
2021/05/19 04:01:06;;;;;;;1.45;1.25;;;;;;;17.55;39.45;101400.09;4142778;28;20033;-63
2021/05/19 04:03:06;;;;;;;1.98;1.52;;;;;;;17.51;39.75;101401.75;4139494;28;20030;-64
2021/05/19 04:05:07;;;;;;;1.85;1.65;;;;;;;17.41;39.72;101394.94;4144676;28;20045;-65
2021/05/19 04:07:10;;;;;;;3.90;1.75;;;;;;;17.21;40.18;101414.00;4144271;28;20188;-65
2021/05/19 04:09:12;;;;;;;3.90;2.20;;;;;;;16.93;40.69;101411.09;4135845;28;20687;-65
2021/05/19 04:11:12;;;;;;;3.05;2.10;;;;;;;16.63;41.43;101397.56;4140724;28;20088;-66
2021/05/19 04:13:12;;;;;;;5.75;2.40;;;;;;;16.96;40.71;101401.47;4143556;28;20488;-71
2021/05/19 04:15:14;;;;;;;4.60;2.75;;;;;;;17.13;40.32;101404.19;4132888;28;20076;-75
2021/05/19 04:17:14;;;;;;;4.55;1.98;;;;;;;17.49;39.59;101398.34;4143492;28;20034;-68
2021/05/19 04:19:15;;;;;;;6.68;2.90;;;;;;;15.87;42.82;101400.59;4152394;28;20506;-68
2021/05/19 04:21:15;;;;;;;6.63;2.92;;;;;;;15.78;43.48;101402.06;4140377;28;20061;-69
2021/05/19 04:23:16;;;;;;;6.85;3.22;;;;;;;15.81;43.28;101404.31;4143826;28;20050;-67
2021/05/19 04:25:18;;;;;;;6.25;3.03;;;;;;;15.71;43.38;101401.31;4143199;28;20465;-69
2021/05/19 04:27:18;;;;;;;6.63;3.13;;;;;;;16.03;42.68;101402.59;4144830;28;20030;-67
2021/05/19 04:29:19;;;;;;;5.18;2.90;;;;;;;16.42;41.58;101398.31;4143275;28;20036;-68
2021/05/19 04:31:19;;;;;;;3.67;2.42;;;;;;;16.42;41.48;101404.69;4141355;28;20400;-69
2021/05/19 04:33:22;;;;;;;5.10;2.83;;;;;;;16.51;41.37;101397.66;4140772;28;20477;-69
2021/05/19 04:35:22;;;;;;;4.43;2.67;;;;;;;16.06;42.38;101395.72;4144190;28;20539;-67
2021/05/19 04:37:22;;;;;;;3.95;3.10;;;;;;;16.36;41.67;101406.50;4151805;28;20033;-68
2021/05/19 04:39:23;;;;;;;6.00;2.85;;;;;;;16.47;41.36;101402.00;4142464;28;20034;-70
2021/05/19 04:41:23;;;;;;;4.05;2.53;;;;;;;17.26;39.76;101408.56;4140810;28;20052;-70
2021/05/19 04:43:24;;;;;;;4.95;2.22;;;;;;;17.33;39.45;101414.72;4138634;28;20683;-68
2021/05/19 04:45:25;;;;;;;2.75;2.00;;;;;;;16.82;40.63;101414.81;4139960;28;20037;-69
2021/05/19 04:47:25;;;;;;;6.30;2.35;;;;;;;16.11;42.03;101397.72;4143383;28;20030;-68
2021/05/19 04:49:26;;;;;;;4.22;2.53;;;;;;;16.67;41.16;101409.00;4143662;28;20045;-70
2021/05/19 04:51:27;;;;;;;3.97;2.40;;;;;;;17.05;40.13;101421.22;4138989;28;20046;-68
2021/05/19 04:53:27;;;;;;;4.40;2.15;;;;;;;16.82;40.93;101413.94;4143485;28;20030;-69
2021/05/19 04:55:28;;;;;;;6.47;2.65;;;;;;;16.29;42.20;101416.84;4144726;28;20036;-68
2021/05/19 04:57:28;;;;;;;6.43;1.95;;;;;;;16.49;41.52;101410.03;4144288;28;20030;-69
2021/05/19 04:59:29;;;;;;;8.23;2.47;;;;;;;16.43;41.79;101411.88;4141253;28;20662;-71
2021/05/19 05:01:29;;;;;;;7.25;3.00;;;;;;;15.93;43.13;101407.88;4142070;28;20046;-68
2021/05/19 05:03:29;;;;;;;5.53;2.65;;;;;;;16.41;41.89;101418.75;4143914;28;20045;-68
2021/05/19 05:05:30;;;;;;;7.35;2.72;;;;;;;16.83;41.01;101422.00;4138313;28;20083;-69
2021/05/19 05:07:31;;;;;;;6.30;2.40;;;;;;;17.00;40.54;101416.44;4146558;28;20391;-68
2021/05/19 05:09:31;;;;;;;6.72;3.13;;;;;;;16.52;41.68;101420.59;4141304;28;20042;-63
2021/05/19 05:11:32;;;;;;;6.80;2.72;;;;;;;16.64;41.30;101421.38;4139008;28;20098;-70
2021/05/19 05:13:32;;;;;;;6.00;2.85;;;;;;;16.44;42.12;101421.00;4142302;28;20033;-75
2021/05/19 05:15:33;;;;;;;5.18;2.42;;;;;;;17.40;39.38;101415.38;4139786;28;20042;-71
2021/05/19 05:17:33;;;;;;;5.22;2.40;;;;;;;17.32;39.99;101415.84;4139760;28;20030;-73
2021/05/19 05:19:34;;;;;;;7.18;3.17;;;;;;;17.00;40.59;101419.22;4129043;28;20044;-71
2021/05/19 05:21:34;;;;;;;7.75;4.03;;;;;;;16.38;42.07;101426.41;4139923;28;20034;-72
2021/05/19 05:23:35;;;;;;;5.45;2.80;;;;;;;16.28;42.58;101420.72;4144546;28;20109;-70
2021/05/19 05:25:36;;;;;;;8.18;3.05;;;;;;;16.70;41.66;101428.69;4132699;28;20026;-67
2021/05/19 05:27:36;;;;;;;6.32;2.72;;;;;;;16.51;42.08;101424.44;4137702;28;20030;-67
2021/05/19 05:29:39;;;;;;;10.43;3.50;;;;;;;15.92;43.67;101422.75;4139381;28;20026;-64
2021/05/19 05:31:40;;;;;;;9.73;3.60;;;;;;;15.85;44.16;101422.91;4136675;28;20053;-65
2021/05/19 05:33:40;;;;;;;9.23;3.83;;;;;;;15.89;44.07;101420.50;4140462;28;20033;-68
2021/05/19 05:35:41;;;;;;;8.38;3.53;;;;;;;16.25;43.71;101423.13;4140842;28;20041;-65
2021/05/19 05:37:42;;;;;;;12.50;3.45;;;;;;;16.17;43.89;101425.22;4136562;28;20037;-66
2021/05/19 05:39:42;;;;;;;12.20;4.38;;;;;;;16.07;44.17;101432.47;4142284;28;20061;-69
2021/05/19 05:41:43;;;;;;;10.52;3.45;;;;;;;16.31;43.60;101435.94;4140911;28;20037;-66
2021/05/19 05:43:43;;;;;;;11.02;3.70;;;;;;;15.95;44.55;101433.31;4137877;28;20034;-69
2021/05/19 05:45:44;;;;;;;11.35;4.05;;;;;;;15.51;46.02;101435.69;4140427;28;20038;-69
2021/05/19 05:47:44;;;;;;;12.45;4.47;;;;;;;15.66;45.67;101435.16;4134022;28;20030;-69
2021/05/19 05:49:44;;;;;;;12.90;3.75;;;;;;;15.63;45.76;101424.59;4140970;28;20427;-68
2021/05/19 05:51:45;;;;;;;9.65;3.28;;;;;;;16.25;44.00;101435.03;4138907;28;20096;-69
2021/05/19 05:53:45;;;;;;;9.43;3.72;;;;;;;15.26;46.84;101436.78;4139123;28;20030;-68
2021/05/19 05:55:46;;;;;;;10.63;3.72;;;;;;;15.45;46.62;101439.41;4141191;28;20345;-69
2021/05/19 05:57:47;;;;;;;13.43;3.90;;;;;;;15.57;46.38;101440.22;4138789;28;20558;-68
2021/05/19 05:59:48;;;;;;;15.68;5.20;;;;;;;15.64;46.35;101440.09;4136970;28;20329;-68
2021/05/19 06:01:48;;;;;;;13.00;3.72;;;;;;;15.42;46.81;101443.47;4141638;28;20480;-69
2021/05/19 06:03:49;;;;;;;15.80;5.05;;;;;;;15.00;48.24;101443.59;4135810;28;20035;-69
2021/05/19 06:05:49;;;;;;;13.77;4.22;;;;;;;15.53;46.71;101430.75;4137361;28;21056;-71
2021/05/19 06:07:50;;;;;;;11.85;3.72;;;;;;;15.47;46.93;101432.53;4140633;28;20038;-70
2021/05/19 06:09:52;;;;;;;17.75;5.05;;;;;;;15.15;48.06;101440.34;4138232;28;20056;-71
2021/05/19 06:11:52;;;;;;;17.00;5.00;;;;;;;15.92;45.71;101436.56;4133315;28;20125;-69
2021/05/19 06:13:53;;;;;;;15.63;4.90;;;;;;;15.90;45.39;101433.22;4141876;28;20025;-68
2021/05/19 06:15:53;;;;;;;13.10;4.72;;;;;;;15.80;45.70;101447.66;4137008;28;20292;-66
2021/05/19 06:17:54;;;;;;;11.68;3.75;;;;;;;16.10;44.94;101437.50;4141894;28;20025;-66
2021/05/19 06:19:54;;;;;;;10.15;3.65;;;;;;;16.60;43.36;101439.53;4136950;28;20034;-66
2021/05/19 06:21:55;;;;;;;16.20;5.10;;;;;;;16.07;44.79;101447.09;4134224;28;20432;-67
2021/05/19 06:23:55;;;;;;;11.32;4.30;;;;;;;16.22;44.55;101443.81;4140668;28;20030;-68
2021/05/19 06:25:56;;;;;;;16.02;4.22;;;;;;;15.83;45.63;101446.31;4137583;28;20030;-66
2021/05/19 06:27:56;;;;;;;15.23;4.30;;;;;;;16.11;45.24;101448.28;4140215;28;20041;-68
2021/05/19 06:29:57;;;;;;;10.73;3.47;;;;;;;16.11;44.97;101442.78;4141229;28;20062;-68
2021/05/19 06:31:57;;;;;;;13.00;4.50;;;;;;;16.56;43.79;101449.41;4138785;28;20022;-67
2021/05/19 06:33:57;;;;;;;9.68;3.08;;;;;;;15.97;45.41;101457.94;4139703;28;20618;-67
2021/05/19 06:35:58;;;;;;;9.45;2.88;;;;;;;16.34;44.55;101452.03;4135006;28;20038;-65
2021/05/19 06:37:58;;;;;;;10.15;3.20;;;;;;;16.28;44.74;101450.25;4138872;28;20037;-65
2021/05/19 06:39:59;;;;;;;14.68;3.83;;;;;;;15.88;45.86;101449.22;4143472;28;20042;-66
2021/05/19 06:41:59;;;;;;;12.48;3.45;;;;;;;16.39;44.33;101452.97;4137627;28;20049;-66
2021/05/19 06:44:00;;;;;;;13.02;3.95;;;;;;;16.24;44.77;101452.69;4138431;28;20095;-66
2021/05/19 06:46:00;;;;;;;12.25;3.40;;;;;;;16.46;44.16;101452.00;4146334;28;20049;-66
2021/05/19 06:48:00;;;;;;;11.50;3.40;;;;;;;16.33;44.57;101451.19;4140627;28;20034;-71
2021/05/19 06:50:01;;;;;;;8.80;2.92;;;;;;;16.50;44.03;101444.88;4129642;28;20046;-69
2021/05/19 06:52:01;;;;;;;9.50;2.72;;;;;;;16.50;43.91;101444.88;4140442;28;20034;-68
2021/05/19 06:54:03;;;;;;;9.13;2.47;;;;;;;16.69;43.67;101446.34;4139226;28;20033;-68
2021/05/19 06:56:03;;;;;;;7.70;2.60;;;;;;;16.92;43.17;101447.31;4134719;28;20495;-63
2021/05/19 06:58:04;;;;;;;10.82;2.92;;;;;;;17.09;42.34;101447.31;4142325;28;20149;-66
2021/05/19 07:00:07;;;;;;;11.00;2.92;;;;;;;16.97;42.75;101447.38;4135392;28;20042;-69
2021/05/19 07:02:07;;;;;;;10.38;3.78;;;;;;;16.75;43.30;101458.34;4134509;28;20045;-67
2021/05/19 07:04:08;;;;;;;10.13;3.38;;;;;;;17.01;42.56;101456.84;4131215;28;20166;-68
2021/05/19 07:06:08;;;;;;;11.07;3.20;;;;;;;17.17;41.99;101460.69;4143254;28;20068;-77
2021/05/19 07:08:09;;;;;;;11.18;2.90;;;;;;;17.33;42.05;101453.47;4139066;28;20046;-67
2021/05/19 07:10:10;;;;;;;10.18;2.72;;;;;;;17.49;41.48;101454.56;4140445;28;20046;-67
2021/05/19 07:12:10;;;;;;;10.13;2.90;;;;;;;17.45;42.11;101450.59;4140506;28;20034;-65
2021/05/19 07:14:16;;;;;;;10.90;2.88;;;;;;;17.46;42.06;101458.66;4138636;28;20084;-66
2021/05/19 07:16:19;;;;;;;11.65;2.70;;;;;;;17.62;41.40;101461.66;4137923;28;20037;-68
2021/05/19 07:18:21;;;;;;;12.85;3.20;;;;;;;17.76;41.23;101454.66;4137720;28;20503;-62
2021/05/19 07:20:21;;;;;;;9.45;2.70;;;;;;;17.68;41.91;101459.81;4138902;28;20030;-61
2021/05/19 07:22:25;;;;;;;9.73;2.63;;;;;;;17.57;42.45;101458.84;4132037;28;20026;-63
2021/05/19 07:24:25;;;;;;;11.57;3.03;;;;;;;17.78;41.29;101459.94;4130917;28;20049;-64
2021/05/19 07:26:28;;;;;;;8.88;2.83;;;;;;;17.68;41.97;101455.13;4136292;28;20088;-62
2021/05/19 07:28:28;;;;;;;7.85;2.10;;;;;;;17.73;41.54;101466.25;4136435;28;20065;-72
2021/05/19 07:30:29;;;;;;;12.63;3.22;;;;;;;17.58;42.40;101466.88;4142597;28;20039;-70
2021/05/19 07:32:29;;;;;;;14.40;3.00;;;;;;;17.76;42.06;101464.91;4141982;28;20552;-64
2021/05/19 07:34:30;;;;;;;7.75;3.00;;;;;;;17.53;42.66;101465.97;4152223;28;20068;-65
2021/05/19 07:36:30;;;;;;;9.63;3.20;;;;;;;17.68;41.86;101459.81;4140609;28;20033;-73
2021/05/19 07:38:31;;;;;;;7.75;2.63;;;;;;;17.36;43.09;101472.31;4136155;28;20039;-74
2021/05/19 07:40:31;;;;;;;14.38;2.58;;;;;;;17.63;42.67;101471.66;4144694;28;20112;-69
2021/05/19 07:42:32;;;;;;;8.02;2.63;;;;;;;17.64;42.61;101465.00;4137183;28;20432;-75
2021/05/19 07:44:32;;;;;;;8.43;2.40;;;;;;;17.87;41.96;101474.19;4148813;28;20577;-67
2021/05/19 07:46:33;;;;;;;9.07;2.70;;;;;;;17.74;42.55;101469.88;4140183;28;20045;-75
2021/05/19 07:48:34;;;;;;;6.57;2.15;;;;;;;17.84;42.31;101480.22;4135854;28;20072;-72
2021/05/19 07:50:34;;;;;;;6.30;2.25;;;;;;;17.93;41.62;101468.44;4134889;28;20038;-73
2021/05/19 07:52:35;;;;;;;4.35;2.10;;;;;;;18.06;41.37;101477.47;4137568;28;20026;-71
2021/05/19 07:54:36;;;;;;;9.38;2.30;;;;;;;17.87;42.39;101477.78;4136278;28;20038;-78
2021/05/19 07:56:52;;;;;;;9.60;1.90;;;;;;;18.02;41.81;101474.38;4139488;28;20108;-66
2021/05/19 08:03:30;;;;;;;9.40;2.70;;;;;;;18.04;41.54;101483.25;4138287;28;20073;-60
2021/05/19 08:05:31;;;;;;;8.45;2.20;;;;;;;18.09;41.50;101475.03;4138740;28;20520;-67
2021/05/19 08:07:31;;;;;;;6.43;2.50;;;;;;;18.25;41.26;101480.75;4138113;28;20027;-67
2021/05/19 08:09:32;;;;;;;4.68;2.15;;;;;;;18.24;41.06;101490.97;4135703;28;20052;-65
2021/05/19 08:11:34;;;;;;;4.93;2.25;;;;;;;18.21;41.07;101471.28;4136280;28;20079;-65
2021/05/19 08:13:39;;;;;;;5.80;1.98;;;;;;;18.17;41.10;101480.09;4132090;28;20503;-65
2021/05/19 08:15:40;;;;;;;6.50;2.13;;;;;;;18.23;40.75;101485.69;4136772;28;20045;-65
2021/05/19 08:17:40;;;;;;;5.50;2.00;;;;;;;18.15;40.99;101487.84;4133522;28;20034;-65
2021/05/19 08:19:40;;;;;;;7.97;1.95;;;;;;;18.16;41.05;101483.13;4136107;28;20049;-67
2021/05/19 08:21:41;;;;;;;6.72;2.35;;;;;;;18.24;40.85;101484.63;4133782;28;20041;-65
2021/05/19 08:23:41;;;;;;;6.85;1.88;;;;;;;18.23;40.70;101480.16;4135189;28;20489;-75
2021/05/19 08:25:42;;;;;;;5.53;1.70;;;;;;;18.28;40.54;101483.84;4133233;28;20587;-67
2021/05/19 08:27:42;;;;;;;5.07;1.98;;;;;;;18.29;40.92;101487.44;4137220;28;20162;-72
2021/05/19 08:29:43;;;;;;;9.93;2.35;;;;;;;18.35;40.64;101476.19;4138749;28;20041;-67
2021/05/19 08:31:43;;;;;;;6.38;2.45;;;;;;;18.39;40.72;101475.69;4139406;28;20025;-76
2021/05/19 08:33:46;;;;;;;7.93;1.80;;;;;;;18.33;40.92;101477.53;4140645;28;20534;-66
2021/05/19 08:35:46;;;;;;;6.18;1.75;;;;;;;18.41;40.73;101476.25;4144787;28;20503;-69
2021/05/19 08:37:47;;;;;;;4.72;1.50;;;;;;;18.41;40.98;101479.03;4139417;28;20121;-67
2021/05/19 08:39:48;;;;;;;7.18;1.83;;;;;;;18.33;40.83;101474.78;4141089;28;20376;-65
2021/05/19 08:41:49;;;;;;;6.13;1.58;;;;;;;18.38;41.13;101488.69;4138726;28;20041;-66
2021/05/19 08:43:50;;;;;;;6.38;1.63;;;;;;;18.47;41.02;101484.34;4137928;28;20495;-64
2021/05/19 08:45:50;;;;;;;6.28;2.22;;;;;;;18.47;40.61;101481.56;4133151;28;20042;-64
2021/05/19 08:48:02;;;;;;;4.57;2.05;;;;;;;18.47;40.80;101483.53;4135354;28;20042;-65
2021/05/19 08:50:06;;;;;;;5.35;1.60;;;;;;;18.48;40.66;101491.56;4142551;28;20030;-64
2021/05/19 08:52:06;;;;;;;5.22;1.35;;;;;;;18.54;40.72;101484.16;4136028;28;20477;-67
2021/05/19 08:54:08;;;;;;;4.32;2.13;;;;;;;18.49;40.73;101481.31;4135825;28;20072;-67
2021/05/19 08:56:13;;;;;;;8.48;2.10;;;;;;;18.47;40.90;101492.66;4134324;28;20030;-65
2021/05/19 08:58:13;;;;;;;6.28;1.88;;;;;;;18.49;41.13;101482.16;4140037;28;20110;-69
2021/05/19 09:00:15;;;;;;;6.53;2.17;;;;;;;18.58;40.77;101498.31;4141813;28;20034;-66
2021/05/19 09:02:17;;;;;;;5.03;1.50;;;;;;;18.63;40.69;101495.59;4145889;28;20042;-72
2021/05/19 09:04:22;;;;;;;5.85;1.98;;;;;;;18.65;40.67;101494.25;4135556;28;20058;-66
2021/05/19 09:06:23;;;;;;;5.38;1.33;;;;;;;18.68;40.71;101499.28;4138247;28;20117;-73
2021/05/19 09:08:24;;;;;;;4.43;1.73;;;;;;;18.60;41.21;101496.13;4136073;28;20042;-68
2021/05/19 09:10:25;;;;;;;3.72;1.70;;;;;;;18.67;40.77;101499.53;4138105;28;20042;-67
2021/05/19 09:12:25;;;;;;;5.82;1.50;;;;;;;18.72;40.84;101496.81;4139509;28;20069;-65
2021/05/19 09:14:28;;;;;;;5.72;1.73;;;;;;;18.73;40.47;101505.97;4133509;28;20034;-70
2021/05/19 09:16:29;;;;;;;4.13;1.60;;;;;;;18.79;40.34;101494.66;4137847;28;20025;-68
2021/05/19 09:18:50;;;;;;;4.43;2.15;;;;;;;18.75;40.53;101501.00;4137490;28;20509;-69
2021/05/19 09:20:53;;;;;;;5.20;1.33;;;;;;;18.73;40.68;101504.03;4135384;28;20759;-66
2021/05/19 09:23:03;;;;;;;7.40;2.08;;;;;;;18.60;40.88;101509.97;4138385;28;20208;-66
2021/05/19 09:25:16;;;;;;;4.93;1.70;;;;;;;18.76;40.53;101508.22;4135780;28;20057;-66
2021/05/19 09:27:16;;;;;;;3.97;1.10;;;;;;;18.88;40.31;101506.13;4136371;28;20489;-66